Time;durP1;ratioP1;P1;durP2;ratioP2;P2;SDS_P1;SDS_P2;PMS_P1;PMS_P2;Temp;Humidity;BMP_temperature;BMP_pressure;BME280_temperature;BME280_humidity;BME280_pressure;Samples;Min_cycle;Max_cycle;Signal;HPM_P1;HPM_P2
2023/03/19 00:02:23;;;;;;;30.33;19.00;;;10.70;99.90;;;;;;5037805;28;20045;-62
2023/03/19 00:04:49;;;;;;;28.65;18.40;;;10.70;99.90;;;;;;5045582;28;20040;-62
2023/03/19 00:07:15;;;;;;;29.85;20.25;;;10.70;99.90;;;;;;5048471;28;20049;-62
2023/03/19 00:09:41;;;;;;;32.85;21.90;;;10.70;99.90;;;;;;5032074;28;20124;-63
2023/03/19 00:12:07;;;;;;;29.80;21.58;;;10.70;99.90;;;;;;5040893;28;20222;-63
2023/03/19 00:14:33;;;;;;;30.17;21.60;;;10.70;99.90;;;;;;5051752;28;20668;-62
2023/03/19 00:17:00;;;;;;;30.02;20.13;;;10.70;99.90;;;;;;5041893;28;20045;-62
2023/03/19 00:19:25;;;;;;;29.30;20.52;;;10.70;99.90;;;;;;5034019;28;20045;-62
2023/03/19 00:21:51;;;;;;;28.20;19.42;;;10.70;99.90;;;;;;5051645;28;20045;-62
2023/03/19 00:24:17;;;;;;;28.80;20.10;;;10.60;99.90;;;;;;5051993;28;20051;-62
2023/03/19 00:26:42;;;;;;;26.48;18.85;;;10.60;99.90;;;;;;5045834;28;20041;-63
2023/03/19 00:29:09;;;;;;;28.55;18.23;;;10.70;99.90;;;;;;5049255;28;20029;-62
2023/03/19 00:31:35;;;;;;;23.55;16.25;;;10.70;99.90;;;;;;5051526;28;20116;-62
2023/03/19 00:34:01;;;;;;;26.38;16.90;;;10.70;99.90;;;;;;5051482;28;20138;-62
2023/03/19 00:36:27;;;;;;;24.23;16.15;;;10.80;99.90;;;;;;5041184;28;20068;-62
2023/03/19 00:38:53;;;;;;;24.90;17.15;;;10.80;99.90;;;;;;5045980;28;20039;-63
2023/03/19 00:41:20;;;;;;;23.48;16.85;;;10.80;99.90;;;;;;5051438;28;20545;-63
2023/03/19 00:43:46;;;;;;;24.98;17.88;;;10.90;99.90;;;;;;5039201;28;20036;-63
2023/03/19 00:46:12;;;;;;;22.88;16.33;;;10.90;99.90;;;;;;5048327;28;20388;-63
2023/03/19 00:48:38;;;;;;;27.10;18.08;;;10.90;99.90;;;;;;5050795;28;20395;-63
2023/03/19 00:51:06;;;;;;;26.83;17.63;;;11.00;99.90;;;;;;5040618;28;20087;-63
2023/03/19 00:53:35;;;;;;;24.45;17.70;;;11.00;99.90;;;;;;5043087;28;20074;-63
2023/03/19 00:56:01;;;;;;;27.40;16.85;;;11.00;99.90;;;;;;5051310;28;20080;-62
2023/03/19 00:58:26;;;;;;;25.35;18.23;;;10.90;99.90;;;;;;5035595;28;20064;-62
2023/03/19 01:00:53;;;;;;;25.80;17.60;;;10.90;99.90;;;;;;5045209;28;20033;-63
2023/03/19 01:03:19;;;;;;;24.58;17.45;;;10.90;99.90;;;;;;5039733;28;20090;-63
2023/03/19 01:05:47;;;;;;;23.20;17.13;;;10.90;99.90;;;;;;5051520;28;20045;-62
2023/03/19 01:08:13;;;;;;;25.33;17.52;;;10.90;99.90;;;;;;5039775;28;20116;-63
2023/03/19 01:10:38;;;;;;;25.05;16.55;;;10.90;99.90;;;;;;5050450;28;20626;-63
2023/03/19 01:13:04;;;;;;;22.70;15.77;;;10.90;99.90;;;;;;5051203;28;20033;-63
2023/03/19 01:15:30;;;;;;;21.40;15.95;;;10.90;99.90;;;;;;5044820;28;20059;-62
2023/03/19 01:17:55;;;;;;;24.00;17.02;;;10.90;99.90;;;;;;5044159;28;20037;-63
2023/03/19 01:20:22;;;;;;;26.40;17.67;;;10.90;99.90;;;;;;5050817;28;20072;-62
2023/03/19 01:22:50;;;;;;;23.13;16.83;;;10.90;99.90;;;;;;5051438;28;20052;-63
2023/03/19 01:25:16;;;;;;;22.83;16.23;;;10.90;99.90;;;;;;5031319;28;20040;-62
2023/03/19 01:27:42;;;;;;;24.33;16.10;;;10.90;99.90;;;;;;5050275;28;20029;-62
2023/03/19 01:30:08;;;;;;;22.90;17.48;;;10.90;99.90;;;;;;5050809;28;20133;-62
2023/03/19 01:32:33;;;;;;;25.70;17.17;;;10.90;99.90;;;;;;5038569;28;20083;-63
2023/03/19 01:34:59;;;;;;;25.02;17.13;;;10.90;99.90;;;;;;5042616;28;20064;-63
2023/03/19 01:37:24;;;;;;;25.10;17.58;;;10.90;99.90;;;;;;5050402;28;20037;-62
2023/03/19 01:39:50;;;;;;;25.70;17.55;;;10.90;99.90;;;;;;5050917;28;20048;-63
2023/03/19 01:42:16;;;;;;;23.15;16.80;;;10.90;99.90;;;;;;5041652;28;20033;-63
2023/03/19 01:44:43;;;;;;;24.40;17.70;;;10.90;99.90;;;;;;5024460;28;20033;-63
2023/03/19 01:47:37;;;;;;;24.83;16.27;;;10.90;99.90;;;;;;5049612;28;20060;-62
2023/03/19 01:50:03;;;;;;;24.27;16.15;;;10.90;99.90;;;;;;5032775;28;20053;-62
2023/03/19 01:52:32;;;;;;;25.50;16.90;;;10.90;99.90;;;;;;5043536;28;20033;-62
2023/03/19 01:55:01;;;;;;;26.92;16.83;;;10.90;99.90;;;;;;5050655;28;20080;-62
2023/03/19 01:57:29;;;;;;;23.58;17.05;;;10.90;99.90;;;;;;5046658;28;20395;-63
2023/03/19 01:59:59;;;;;;;22.50;16.55;;;10.90;99.90;;;;;;5044604;28;20040;-63
2023/03/19 02:02:30;;;;;;;23.17;15.73;;;10.90;99.90;;;;;;5044506;28;20041;-62
2023/03/19 02:05:01;;;;;;;24.92;16.58;;;10.80;99.90;;;;;;5053339;28;20037;-63
2023/03/19 02:07:29;;;;;;;25.77;16.98;;;10.80;99.90;;;;;;5030534;28;20049;-62
2023/03/19 02:09:56;;;;;;;21.40;16.27;;;10.80;99.90;;;;;;5045566;28;20036;-62
2023/03/19 02:12:22;;;;;;;22.55;16.38;;;10.80;99.90;;;;;;5053897;28;20048;-62
2023/03/19 02:14:47;;;;;;;21.90;16.42;;;10.80;99.90;;;;;;5048597;28;20029;-62
2023/03/19 02:17:13;;;;;;;21.45;15.38;;;10.80;99.90;;;;;;5051581;28;20067;-62
2023/03/19 02:20:05;;;;;;;22.63;15.70;;;10.80;99.90;;;;;;5053645;28;20552;-62
2023/03/19 02:22:32;;;;;;;23.48;15.48;;;10.70;99.90;;;;;;5053702;28;20041;-62
2023/03/19 02:25:05;;;;;;;23.02;15.30;;;10.70;99.90;;;;;;5041670;28;20041;-62
2023/03/19 02:27:30;;;;;;;22.10;15.02;;;10.70;99.90;;;;;;5045046;28;20041;-63
2023/03/19 02:29:56;;;;;;;21.20;14.80;;;10.60;99.90;;;;;;5053834;28;20040;-62
2023/03/19 02:32:21;;;;;;;19.65;14.82;;;10.60;99.90;;;;;;5045407;28;20041;-63
2023/03/19 02:34:47;;;;;;;19.92;14.10;;;10.60;99.90;;;;;;5050857;28;20036;-62
2023/03/19 02:37:23;;;;;;;19.48;13.05;;;10.50;99.90;;;;;;5053697;28;20044;-63
2023/03/19 02:39:54;;;;;;;17.67;12.13;;;10.50;99.90;;;;;;5039859;28;20037;-62
2023/03/19 02:42:22;;;;;;;18.38;12.38;;;10.50;99.90;;;;;;5035841;28;20096;-62
2023/03/19 02:44:47;;;;;;;20.25;13.32;;;10.50;99.90;;;;;;5050206;28;20037;-63
2023/03/19 02:47:14;;;;;;;17.02;12.60;;;10.50;99.90;;;;;;5053253;28;20067;-62
2023/03/19 02:49:40;;;;;;;21.00;13.27;;;10.50;99.90;;;;;;5045549;28;20044;-63
2023/03/19 02:52:05;;;;;;;16.83;13.02;;;10.50;99.90;;;;;;5049773;28;20033;-62
2023/03/19 02:54:31;;;;;;;20.45;13.55;;;10.50;99.90;;;;;;5053325;28;20100;-62
2023/03/19 02:56:57;;;;;;;23.15;13.73;;;10.40;99.90;;;;;;5053615;28;20095;-62
2023/03/19 02:59:22;;;;;;;17.70;12.45;;;10.40;99.90;;;;;;5033507;28;20044;-63
2023/03/19 03:01:48;;;;;;;18.15;12.57;;;10.40;99.90;;;;;;5037308;28;20095;-62
2023/03/19 03:04:15;;;;;;;20.55;13.25;;;10.40;99.90;;;;;;5049695;28;20045;-63
2023/03/19 03:06:42;;;;;;;17.85;13.05;;;10.40;99.90;;;;;;5044234;28;20412;-63
2023/03/19 03:09:08;;;;;;;17.10;12.45;;;10.40;99.90;;;;;;5040074;28;20033;-62
2023/03/19 03:11:33;;;;;;;18.27;13.55;;;10.30;99.90;;;;;;5043133;28;20055;-62
2023/03/19 03:13:59;;;;;;;17.75;12.90;;;10.30;99.90;;;;;;5052817;28;20083;-63
2023/03/19 03:16:25;;;;;;;20.08;12.95;;;10.30;99.90;;;;;;5052758;28;20053;-62
2023/03/19 03:18:50;;;;;;;20.05;13.80;;;10.30;99.90;;;;;;5045471;28;20041;-63
2023/03/19 03:21:18;;;;;;;16.65;12.80;;;10.30;99.90;;;;;;5045717;28;20089;-62
2023/03/19 03:23:44;;;;;;;19.55;13.10;;;10.30;99.90;;;;;;5052665;28;20045;-62
2023/03/19 03:26:10;;;;;;;18.60;12.98;;;10.20;99.90;;;;;;5046609;28;20080;-62
2023/03/19 03:28:36;;;;;;;16.23;12.35;;;10.30;99.90;;;;;;5044883;28;20037;-63
2023/03/19 03:31:02;;;;;;;18.08;11.88;;;10.20;99.90;;;;;;5052057;28;20135;-62
2023/03/19 03:33:28;;;;;;;18.50;11.57;;;10.20;99.90;;;;;;5052741;28;20052;-62
2023/03/19 03:35:54;;;;;;;14.60;10.82;;;10.20;99.90;;;;;;5048770;28;20491;-62
2023/03/19 03:38:20;;;;;;;14.48;10.75;;;10.30;99.90;;;;;;5045264;28;20120;-62
2023/03/19 03:40:52;;;;;;;15.45;10.85;;;10.30;99.90;;;;;;5052346;28;20491;-63
2023/03/19 03:43:19;;;;;;;;;;;10.30;99.90;;;;;;5041241;28;20469;-62
2023/03/19 03:45:46;;;;;;;13.50;10.18;;;10.30;99.90;;;;;;5050028;28;19963;-62
2023/03/19 03:48:12;;;;;;;13.20;9.77;;;10.30;99.90;;;;;;5051920;28;20080;-62
2023/03/19 03:50:38;;;;;;;13.23;9.60;;;10.30;99.90;;;;;;5052339;28;20040;-62
2023/03/19 03:53:04;;;;;;;12.77;8.90;;;10.30;99.90;;;;;;5042302;28;20030;-63
2023/03/19 03:55:30;;;;;;;11.98;8.48;;;10.30;99.90;;;;;;5046204;28;20033;-63
2023/03/19 03:57:56;;;;;;;12.85;8.93;;;10.30;99.90;;;;;;5051749;28;20041;-63
2023/03/19 04:00:23;;;;;;;12.93;9.10;;;10.30;99.90;;;;;;5043557;28;20048;-62
2023/03/19 04:02:48;;;;;;;12.02;8.88;;;10.30;99.90;;;;;;5047520;28;20041;-62
2023/03/19 04:05:15;;;;;;;10.82;8.30;;;10.30;99.90;;;;;;5052097;28;20078;-62
2023/03/19 04:07:41;;;;;;;11.32;8.05;;;10.30;99.90;;;;;;5046786;28;20033;-62
2023/03/19 04:10:08;;;;;;;10.90;8.05;;;10.30;99.90;;;;;;5044056;28;20463;-62
2023/03/19 04:12:34;;;;;;;12.07;8.65;;;10.20;99.90;;;;;;5051737;28;20037;-62
2023/03/19 04:15:00;;;;;;;11.68;8.02;;;10.20;99.90;;;;;;5051782;28;20037;-63
2023/03/19 04:17:25;;;;;;;11.43;7.93;;;10.30;99.90;;;;;;5014794;28;20053;-62
2023/03/19 04:19:51;;;;;;;10.57;7.90;;;10.30;99.90;;;;;;5045866;28;20067;-63
2023/03/19 04:22:17;;;;;;;11.55;8.38;;;10.20;99.90;;;;;;5051569;28;20503;-62
2023/03/19 04:24:42;;;;;;;10.15;7.97;;;10.20;99.90;;;;;;5044865;28;20038;-63
2023/03/19 04:27:08;;;;;;;10.50;7.10;;;10.20;99.90;;;;;;5018273;28;20048;-63
2023/03/19 04:29:33;;;;;;;10.35;7.85;;;10.20;99.90;;;;;;5027121;28;20041;-62
2023/03/19 04:31:59;;;;;;;9.88;7.50;;;10.20;99.90;;;;;;5049496;28;20025;-61
2023/03/19 04:34:25;;;;;;;11.32;7.65;;;10.30;99.90;;;;;;5038104;28;20450;-63
2023/03/19 04:36:50;;;;;;;10.43;6.95;;;10.30;99.90;;;;;;5045364;28;20040;-63
2023/03/19 04:39:17;;;;;;;10.70;7.60;;;10.20;99.90;;;;;;5050542;28;20093;-63
2023/03/19 04:41:44;;;;;;;10.30;7.22;;;10.20;99.90;;;;;;5046031;28;20086;-62
2023/03/19 04:44:09;;;;;;;10.75;7.32;;;10.20;99.90;;;;;;5044336;28;20032;-63
2023/03/19 04:46:35;;;;;;;10.15;7.63;;;10.20;99.90;;;;;;5039173;28;20487;-62
2023/03/19 04:49:01;;;;;;;10.88;7.40;;;10.20;99.90;;;;;;5038411;28;20487;-62
2023/03/19 04:51:27;;;;;;;11.43;7.50;;;10.20;99.90;;;;;;5042953;28;20025;-63
2023/03/19 04:53:52;;;;;;;10.00;7.28;;;10.20;99.90;;;;;;5041579;28;20043;-63
2023/03/19 04:56:18;;;;;;;10.75;7.43;;;10.20;99.90;;;;;;5051480;28;20040;-63
2023/03/19 04:58:44;;;;;;;10.57;6.93;;;10.20;99.90;;;;;;5042721;28;20115;-62
2023/03/19 05:01:10;;;;;;;14.23;7.65;;;10.10;99.90;;;;;;5032242;28;20551;-63
2023/03/19 05:03:36;;;;;;;8.93;6.70;;;10.00;99.90;;;;;;5051006;28;20704;-62
2023/03/19 05:06:02;;;;;;;9.70;7.30;;;10.00;99.90;;;;;;5046338;28;20033;-62
2023/03/19 05:08:27;;;;;;;10.35;7.03;;;9.90;99.90;;;;;;5049476;28;20068;-63
2023/03/19 05:10:53;;;;;;;9.23;7.10;;;9.80;99.90;;;;;;5050601;28;20399;-62
2023/03/19 05:13:19;;;;;;;10.00;7.05;;;9.80;99.90;;;;;;5051003;28;20040;-62
2023/03/19 05:15:45;;;;;;;9.80;7.20;;;9.70;99.90;;;;;;5046623;28;20140;-62
2023/03/19 05:18:11;;;;;;;16.77;7.45;;;9.70;99.90;;;;;;5048811;28;20033;-62
2023/03/19 05:20:37;;;;;;;13.63;7.43;;;9.60;99.90;;;;;;5050889;28;20035;-63
2023/03/19 05:23:03;;;;;;;10.23;7.43;;;9.60;99.90;;;;;;5045915;28;20025;-63
2023/03/19 05:25:29;;;;;;;10.25;7.65;;;9.50;99.90;;;;;;5033700;28;20487;-63
2023/03/19 05:27:54;;;;;;;10.60;7.05;;;9.50;99.90;;;;;;5050016;28;20052;-62
2023/03/19 05:30:20;;;;;;;11.43;7.78;;;9.40;99.90;;;;;;5047707;28;20037;-63
2023/03/19 05:32:46;;;;;;;10.07;7.40;;;9.30;99.90;;;;;;5045060;28;20036;-63
2023/03/19 05:35:12;;;;;;;11.63;8.00;;;9.30;99.90;;;;;;5054513;28;20422;-62
2023/03/19 05:37:38;;;;;;;10.02;7.50;;;9.30;99.90;;;;;;5054461;28;20036;-63
2023/03/19 05:40:05;;;;;;;10.68;8.18;;;9.30;99.90;;;;;;5043174;28;20144;-62
2023/03/19 05:42:30;;;;;;;14.50;7.90;;;9.30;99.90;;;;;;5051878;28;20036;-62
2023/03/19 05:44:56;;;;;;;11.50;7.63;;;9.30;99.90;;;;;;5054505;28;20550;-63
2023/03/19 05:47:22;;;;;;;13.00;8.00;;;9.30;99.90;;;;;;5043026;28;20434;-62
2023/03/19 05:49:47;;;;;;;13.57;8.05;;;9.30;99.90;;;;;;5053925;28;20380;-63
2023/03/19 05:52:14;;;;;;;14.07;8.02;;;9.30;99.90;;;;;;5054475;28;20033;-63
2023/03/19 05:54:40;;;;;;;11.88;8.10;;;9.30;99.90;;;;;;5049276;28;20029;-63
2023/03/19 05:57:06;;;;;;;13.77;7.78;;;9.30;99.90;;;;;;5022230;28;20048;-62
2023/03/19 05:59:32;;;;;;;11.77;8.73;;;9.40;99.90;;;;;;5046366;28;20034;-62
2023/03/19 06:01:58;;;;;;;13.20;8.32;;;9.40;99.90;;;;;;5052977;28;20078;-63
2023/03/19 06:04:24;;;;;;;14.50;8.50;;;9.40;99.90;;;;;;5053412;28;20560;-63
2023/03/19 06:06:50;;;;;;;13.18;8.40;;;9.50;99.90;;;;;;5042053;28;20038;-63
2023/03/19 06:09:16;;;;;;;12.32;8.43;;;9.50;99.90;;;;;;5051068;28;20033;-63
2023/03/19 06:11:41;;;;;;;12.43;8.38;;;9.50;99.90;;;;;;5052657;28;20083;-63
2023/03/19 06:14:07;;;;;;;11.63;7.93;;;9.50;99.90;;;;;;5048378;28;20032;-63
2023/03/19 06:16:32;;;;;;;13.90;8.80;;;9.50;99.90;;;;;;5052422;28;20052;-63
2023/03/19 06:18:58;;;;;;;12.27;8.82;;;9.50;99.90;;;;;;5052495;28;20112;-62
2023/03/19 06:21:29;;;;;;;13.00;8.50;;;9.50;99.90;;;;;;5044399;28;20033;-63
2023/03/19 06:23:57;;;;;;;16.05;9.48;;;9.60;99.90;;;;;;5051401;28;20556;-63
2023/03/19 06:26:24;;;;;;;13.30;8.27;;;9.60;99.90;;;;;;5052828;28;20184;-63
2023/03/19 06:28:49;;;;;;;12.07;8.60;;;9.70;99.90;;;;;;5049146;28;20066;-62
2023/03/19 06:31:15;;;;;;;12.88;8.82;;;9.70;99.90;;;;;;5044604;28;20032;-62
2023/03/19 06:33:41;;;;;;;12.82;9.10;;;9.70;99.90;;;;;;5051250;28;20041;-63
2023/03/19 06:36:07;;;;;;;12.48;8.48;;;9.70;99.90;;;;;;5051636;28;20391;-62
2023/03/19 06:38:34;;;;;;;13.68;9.07;;;9.80;99.90;;;;;;5050226;28;20036;-62
2023/03/19 06:40:59;;;;;;;12.80;8.82;;;9.80;99.90;;;;;;5046712;28;20064;-63
2023/03/19 06:43:25;;;;;;;13.40;9.57;;;9.90;99.90;;;;;;5051216;28;20045;-62
2023/03/19 06:45:51;;;;;;;14.23;9.45;;;9.90;99.90;;;;;;5051565;28;20040;-63
2023/03/19 06:48:17;;;;;;;13.52;9.70;;;9.90;99.90;;;;;;5042241;28;20496;-62
2023/03/19 06:50:44;;;;;;;14.93;9.40;;;10.00;99.90;;;;;;5050282;28;20495;-63
2023/03/19 06:53:10;;;;;;;16.00;10.40;;;10.00;99.90;;;;;;5026718;28;20483;-62
2023/03/19 06:55:36;;;;;;;15.25;10.80;;;10.10;99.90;;;;;;5049915;28;20087;-63
2023/03/19 06:58:02;;;;;;;15.82;10.65;;;10.10;99.90;;;;;;5050781;28;20037;-63
2023/03/19 07:00:27;;;;;;;15.10;10.63;;;10.10;99.90;;;;;;5047454;28;20079;-63
2023/03/19 07:02:53;;;;;;;16.27;10.85;;;10.10;99.90;;;;;;5048129;28;20099;-62
2023/03/19 07:05:19;;;;;;;16.15;10.93;;;10.10;99.90;;;;;;5051461;28;20033;-62
2023/03/19 07:07:44;;;;;;;16.88;10.65;;;10.00;99.90;;;;;;5050706;28;20087;-61
2023/03/19 07:10:10;;;;;;;17.40;10.27;;;10.00;99.90;;;;;;5028509;28;20515;-61
2023/03/19 07:12:36;;;;;;;16.83;11.55;;;10.00;99.90;;;;;;5052928;28;20025;-61
2023/03/19 07:15:03;;;;;;;18.15;11.80;;;10.10;99.90;;;;;;5045987;28;20086;-61
2023/03/19 07:17:30;;;;;;;17.27;11.95;;;10.20;99.90;;;;;;5051835;28;20048;-62
2023/03/19 07:19:55;;;;;;;19.45;12.05;;;10.40;99.90;;;;;;5051978;28;20115;-62
2023/03/19 07:22:21;;;;;;;19.60;12.55;;;10.60;99.90;;;;;;5050659;28;20131;-64
2023/03/19 07:24:47;;;;;;;19.83;12.93;;;10.70;99.90;;;;;;5041221;28;20045;-64
2023/03/19 07:27:12;;;;;;;19.27;12.88;;;10.80;99.90;;;;;;5046789;28;20083;-64
2023/03/19 07:29:38;;;;;;;19.88;12.18;;;10.80;99.90;;;;;;5047298;28;20037;-64
2023/03/19 07:32:04;;;;;;;19.40;12.90;;;10.90;99.90;;;;;;5042598;28;20037;-64
2023/03/19 07:34:30;;;;;;;18.33;13.00;;;10.90;99.90;;;;;;5047618;28;20115;-65
2023/03/19 07:36:56;;;;;;;18.60;12.13;;;11.00;99.90;;;;;;5045730;28;20072;-64
2023/03/19 07:39:21;;;;;;;21.58;12.98;;;11.00;99.90;;;;;;5043100;28;20056;-64
2023/03/19 07:41:48;;;;;;;20.63;13.18;;;11.00;99.90;;;;;;5042981;28;20037;-64
2023/03/19 07:44:14;;;;;;;20.73;13.80;;;11.10;99.90;;;;;;5044641;28;20048;-64
2023/03/19 07:46:41;;;;;;;19.15;13.38;;;11.10;99.90;;;;;;5047867;28;20044;-64
2023/03/19 07:49:06;;;;;;;18.73;12.88;;;11.20;99.90;;;;;;4997295;28;20033;-65
2023/03/19 07:51:32;;;;;;;19.83;13.52;;;11.20;99.90;;;;;;5043601;28;20521;-64
2023/03/19 07:53:58;;;;;;;22.83;14.70;;;11.30;99.90;;;;;;5039145;28;20074;-65
2023/03/19 07:56:24;;;;;;;22.33;13.68;;;11.30;99.90;;;;;;5046287;28;20621;-64
2023/03/19 07:58:50;;;;;;;22.65;14.00;;;11.30;99.90;;;;;;5043413;28;20589;-64
2023/03/19 08:01:16;;;;;;;23.35;13.68;;;11.40;99.90;;;;;;5044568;28;20040;-63
2023/03/19 08:03:42;;;;;;;20.95;13.55;;;11.40;99.90;;;;;;5047514;28;20178;-64
2023/03/19 08:06:08;;;;;;;20.83;13.98;;;11.50;99.90;;;;;;5047452;28;20674;-64
2023/03/19 08:08:36;;;;;;;21.15;12.82;;;11.50;99.90;;;;;;5040694;28;20190;-64
2023/03/19 08:11:02;;;;;;;21.55;14.32;;;11.50;99.90;;;;;;5045137;28;20041;-64
2023/03/19 08:13:28;;;;;;;21.70;14.05;;;11.50;99.90;;;;;;5047207;28;20053;-64
2023/03/19 08:15:55;;;;;;;21.27;14.60;;;11.60;99.90;;;;;;5046801;28;20029;-65
2023/03/19 08:18:21;;;;;;;21.00;14.43;;;11.60;99.90;;;;;;5035310;28;20045;-63
2023/03/19 08:20:47;;;;;;;20.95;12.90;;;11.60;99.90;;;;;;5049939;28;20032;-64
2023/03/19 08:23:13;;;;;;;23.33;13.25;;;11.60;99.90;;;;;;5051615;28;20044;-64
2023/03/19 08:25:39;;;;;;;21.30;13.88;;;11.50;99.90;;;;;;5042628;28;20484;-65
2023/03/19 08:28:06;;;;;;;21.17;13.30;;;11.50;99.90;;;;;;5036310;28;20120;-65
2023/03/19 08:30:31;;;;;;;21.95;14.20;;;11.50;99.90;;;;;;5041938;28;20119;-64
2023/03/19 08:32:57;;;;;;;20.75;12.93;;;11.40;99.90;;;;;;5028983;28;20033;-64
2023/03/19 08:35:25;;;;;;;19.17;13.18;;;11.30;99.90;;;;;;5049906;28;20037;-64
2023/03/19 08:37:51;;;;;;;23.00;13.73;;;11.30;99.90;;;;;;5050802;28;20074;-64
2023/03/19 08:40:17;;;;;;;21.27;13.55;;;11.30;99.90;;;;;;5051107;28;20604;-63
2023/03/19 08:42:43;;;;;;;24.17;14.10;;;11.20;99.90;;;;;;5045057;28;20052;-64
2023/03/19 08:45:11;;;;;;;22.15;14.07;;;11.30;99.90;;;;;;5049382;28;20054;-64
2023/03/19 08:47:37;;;;;;;23.52;13.50;;;11.30;99.90;;;;;;5050328;28;20094;-63
2023/03/19 08:50:03;;;;;;;24.27;14.20;;;11.40;99.90;;;;;;5041847;28;20041;-64
2023/03/19 08:52:29;;;;;;;22.48;13.90;;;11.50;99.90;;;;;;5049322;28;20024;-64
2023/03/19 08:54:54;;;;;;;21.25;14.05;;;11.80;99.90;;;;;;5051285;28;20036;-64
2023/03/19 08:57:20;;;;;;;21.13;13.80;;;12.10;99.90;;;;;;5050763;28;20064;-64
2023/03/19 08:59:46;;;;;;;23.83;14.70;;;12.40;99.90;;;;;;5043915;28;20037;-64
2023/03/19 09:02:12;;;;;;;18.50;12.77;;;12.60;99.90;;;;;;5033019;28;20041;-64
2023/03/19 09:04:41;;;;;;;19.58;13.57;;;12.70;99.90;;;;;;5050480;28;20037;-63
2023/03/19 09:07:07;;;;;;;21.40;14.80;;;12.60;99.90;;;;;;5046272;28;20063;-64
2023/03/19 09:09:33;;;;;;;23.65;15.93;;;12.70;99.90;;;;;;5034072;28;20036;-64
2023/03/19 09:11:58;;;;;;;22.17;14.35;;;12.70;99.90;;;;;;5054362;28;20107;-63
2023/03/19 09:14:24;;;;;;;20.35;13.57;;;12.70;99.90;;;;;;5050680;28;20116;-64
2023/03/19 09:16:50;;;;;;;18.95;12.70;;;12.70;99.90;;;;;;5050359;28;20472;-64
2023/03/19 09:19:16;;;;;;;17.95;12.40;;;12.60;99.90;;;;;;5053942;28;20041;-63
2023/03/19 09:21:41;;;;;;;18.38;11.70;;;12.60;99.90;;;;;;5054543;28;20044;-64
2023/03/19 09:24:07;;;;;;;17.00;11.32;;;12.70;99.90;;;;;;5045003;28;20033;-64
2023/03/19 09:26:33;;;;;;;21.73;11.60;;;12.70;99.90;;;;;;5053993;28;20094;-64
2023/03/19 09:28:58;;;;;;;18.45;11.20;;;12.70;99.90;;;;;;5054185;28;20076;-64
2023/03/19 09:31:24;;;;;;;17.30;11.13;;;12.80;99.90;;;;;;5045135;28;20040;-63
2023/03/19 09:33:50;;;;;;;16.20;10.75;;;12.70;99.90;;;;;;5040016;28;20806;-64
2023/03/19 09:36:15;;;;;;;17.70;11.43;;;12.80;99.90;;;;;;5044412;28;20048;-64
2023/03/19 09:38:41;;;;;;;17.15;12.10;;;13.00;99.90;;;;;;5048365;28;20043;-63
2023/03/19 09:41:19;;;;;;;16.55;11.00;;;13.10;99.90;;;;;;5050741;28;20044;-63
2023/03/19 09:44:03;;;;;;;19.27;12.77;;;13.20;99.90;;;;;;5053776;28;20496;-64
2023/03/19 09:46:56;;;;;;;15.68;10.70;;;13.10;99.90;;;;;;5054245;28;20052;-63
2023/03/19 09:49:32;;;;;;;18.42;11.88;;;13.00;99.90;;;;;;5031106;28;20040;-64
2023/03/19 09:52:18;;;;;;;16.60;11.68;;;12.90;99.90;;;;;;5051241;28;20036;-64
2023/03/19 09:54:47;;;;;;;17.50;11.27;;;13.00;99.90;;;;;;5053742;28;20600;-64
2023/03/19 09:57:14;;;;;;;18.13;11.68;;;13.10;99.90;;;;;;5046847;28;20114;-63
2023/03/19 09:59:40;;;;;;;17.05;11.77;;;13.00;99.90;;;;;;5049557;28;20074;-63
2023/03/19 10:02:20;;;;;;;17.10;12.10;;;13.00;99.90;;;;;;5053108;28;20415;-63
2023/03/19 10:05:04;;;;;;;16.58;11.48;;;13.00;99.90;;;;;;5044612;28;20037;-64
2023/03/19 10:07:38;;;;;;;18.77;12.70;;;13.00;99.90;;;;;;5045986;28;20511;-63
2023/03/19 10:10:21;;;;;;;18.55;12.77;;;13.10;99.90;;;;;;5050946;28;20041;-63
2023/03/19 10:13:19;;;;;;;18.25;12.82;;;13.10;99.90;;;;;;5042807;28;20036;-63
2023/03/19 10:15:45;;;;;;;20.83;12.70;;;13.20;99.90;;;;;;5046996;28;20069;-64
2023/03/19 10:18:18;;;;;;;20.77;13.27;;;13.20;99.90;;;;;;5051657;28;20111;-65
2023/03/19 10:21:01;;;;;;;18.15;12.93;;;13.20;99.90;;;;;;5044326;28;20047;-64
2023/03/19 10:23:33;;;;;;;18.20;12.38;;;13.30;99.90;;;;;;5045065;28;20041;-64
2023/03/19 10:26:00;;;;;;;;;;;13.30;99.90;;;;;;5049682;28;20037;-64
2023/03/19 10:28:28;;;;;;;17.92;11.73;;;13.30;99.90;;;;;;5052668;28;20019;-64
2023/03/19 10:31:21;;;;;;;16.92;11.00;;;13.30;99.90;;;;;;5035016;28;20120;-63
2023/03/19 10:34:16;;;;;;;19.15;11.98;;;13.30;99.90;;;;;;5047837;28;20037;-64
2023/03/19 10:36:41;;;;;;;19.20;12.50;;;13.50;99.90;;;;;;5041609;28;20423;-64
2023/03/19 10:39:07;;;;;;;19.38;12.50;;;13.50;99.90;;;;;;5047234;28;20042;-64
2023/03/19 10:41:38;;;;;;;16.88;11.55;;;13.60;99.90;;;;;;5048249;28;20047;-64
2023/03/19 10:44:23;;;;;;;17.15;12.15;;;13.70;99.90;;;;;;5053075;28;20501;-64
2023/03/19 10:46:49;;;;;;;18.13;12.32;;;13.80;99.90;;;;;;5052842;28;20084;-64
2023/03/19 10:49:15;;;;;;;16.85;11.63;;;13.80;99.90;;;;;;5045149;28;20067;-64
2023/03/19 10:51:47;;;;;;;16.40;11.82;;;13.90;99.90;;;;;;5049580;28;20029;-63
2023/03/19 10:54:21;;;;;;;18.95;12.20;;;14.00;99.90;;;;;;5052372;28;20514;-63
2023/03/19 10:56:48;;;;;;;17.38;11.88;;;13.90;99.90;;;;;;5046763;28;20043;-63
2023/03/19 10:59:29;;;;;;;17.52;12.02;;;13.90;99.90;;;;;;5038420;28;20042;-65
2023/03/19 11:02:16;;;;;;;18.97;12.27;;;13.90;99.90;;;;;;5053158;28;20104;-63
2023/03/19 11:04:41;;;;;;;18.13;12.25;;;13.90;99.90;;;;;;5050030;28;20099;-65
2023/03/19 11:07:18;;;;;;;18.15;12.05;;;13.80;99.90;;;;;;5037833;28;20416;-64
2023/03/19 11:09:49;;;;;;;17.15;12.00;;;13.80;99.90;;;;;;5045690;28;20079;-64
2023/03/19 11:12:32;;;;;;;17.08;12.15;;;13.80;99.90;;;;;;5051789;28;20518;-64
2023/03/19 11:15:01;;;;;;;18.65;12.82;;;13.90;99.90;;;;;;5051038;28;20033;-64
2023/03/19 11:17:37;;;;;;;18.95;12.77;;;14.10;99.90;;;;;;5044390;28;20051;-64
2023/03/19 11:20:32;;;;;;;19.15;13.00;;;14.00;99.90;;;;;;5050196;28;20071;-64
2023/03/19 11:23:01;;;;;;;20.02;13.27;;;14.20;99.90;;;;;;5048172;28;20041;-64
2023/03/19 11:25:32;;;;;;;19.95;13.27;;;14.40;99.90;;;;;;5032031;28;20059;-64
2023/03/19 11:28:05;;;;;;;19.92;12.55;;;14.30;99.90;;;;;;5051012;28;20033;-63
2023/03/19 11:30:52;;;;;;;17.73;12.25;;;14.30;99.90;;;;;;5048207;28;20035;-64
2023/03/19 11:33:25;;;;;;;17.58;11.70;;;14.40;99.90;;;;;;5043710;28;20128;-64
2023/03/19 11:35:57;;;;;;;17.65;12.63;;;14.30;99.90;;;;;;5049028;28;20037;-64
2023/03/19 11:38:43;;;;;;;18.52;12.30;;;14.40;99.90;;;;;;5051370;28;20072;-64
2023/03/19 11:41:25;;;;;;;20.08;12.50;;;14.40;99.90;;;;;;5042971;28;20041;-64
2023/03/19 11:44:21;;;;;;;19.40;12.77;;;14.50;99.90;;;;;;5048388;28;20095;-63
2023/03/19 11:47:04;;;;;;;20.80;14.45;;;14.50;99.90;;;;;;5032559;28;20144;-64
2023/03/19 11:49:36;;;;;;;20.20;13.32;;;14.60;99.90;;;;;;5045095;28;20649;-64
2023/03/19 11:52:21;;;;;;;18.70;12.70;;;14.60;99.90;;;;;;5029898;28;20060;-64
2023/03/19 11:55:16;;;;;;;19.52;12.75;;;14.70;99.90;;;;;;5050962;28;20037;-63
2023/03/19 11:57:58;;;;;;;17.23;12.13;;;14.80;99.90;;;;;;5041847;28;20061;-63
2023/03/19 12:00:49;;;;;;;21.10;13.73;;;15.00;99.90;;;;;;5043429;28;20069;-64
2023/03/19 12:03:25;;;;;;;22.63;13.83;;;15.00;99.90;;;;;;5041831;28;20033;-63
2023/03/19 12:06:07;;;;;;;18.17;12.55;;;15.10;99.90;;;;;;5051702;28;20268;-63
2023/03/19 12:08:48;;;;;;;19.33;12.77;;;15.20;99.90;;;;;;5041696;28;20072;-64
2023/03/19 12:11:33;;;;;;;21.10;13.23;;;15.10;99.90;;;;;;5044395;28;20105;-63
2023/03/19 12:14:05;;;;;;;22.30;13.95;;;15.20;99.90;;;;;;5045453;28;20048;-63
2023/03/19 12:16:33;;;;;;;19.92;12.73;;;15.30;99.90;;;;;;5051151;28;20037;-63
2023/03/19 12:19:10;;;;;;;21.90;13.68;;;15.30;99.90;;;;;;5051055;28;20043;-64
2023/03/19 12:22:37;;;;;;;21.80;14.35;;;15.30;99.90;;;;;;5045747;28;20103;-63
2023/03/19 12:25:31;;;;;;;17.73;12.77;;;15.40;99.90;;;;;;4996225;28;20069;-64
2023/03/19 12:28:03;;;;;;;21.75;13.50;;;15.50;99.90;;;;;;5045825;28;20765;-63
2023/03/19 12:30:58;;;;;;;18.95;13.07;;;15.70;99.90;;;;;;5047123;28;20037;-63
2023/03/19 12:33:40;;;;;;;19.98;13.65;;;15.80;99.90;;;;;;5049376;28;20041;-64
2023/03/19 12:36:12;;;;;;;19.23;12.80;;;15.70;99.90;;;;;;5049346;28;20040;-64
2023/03/19 12:38:49;;;;;;;20.80;13.55;;;15.50;99.90;;;;;;5030898;28;20044;-63
2023/03/19 12:41:38;;;;;;;19.90;13.50;;;15.40;99.90;;;;;;5027374;28;20041;-63